createdAt,value
2018-09-26T00:03:31.628Z,36.12
2018-09-26T00:08:34.898Z,36.69
2018-09-26T00:13:38.191Z,36.22
2018-09-26T00:18:41.482Z,36.19
2018-09-26T00:23:44.759Z,36.52
2018-09-26T00:28:48.039Z,36.61
2018-09-26T00:33:51.318Z,36.37
2018-09-26T00:38:54.672Z,36.82
2018-09-26T00:43:57.950Z,36.73
2018-09-26T00:49:01.230Z,36.41
2018-09-26T00:54:04.514Z,36.52
2018-09-26T00:59:07.790Z,36.88
2018-09-26T01:04:11.069Z,36.75
2018-09-26T01:09:14.367Z,36.65
2018-09-26T01:14:17.649Z,37.33
2018-09-26T01:19:20.943Z,36.85
2018-09-26T01:24:24.231Z,37.20
2018-09-26T01:29:27.534Z,36.76
2018-09-26T01:34:30.830Z,37.08
2018-09-26T01:39:34.155Z,37.18
2018-09-26T01:44:37.461Z,37.17
2018-09-26T01:49:40.745Z,37.36
2018-09-26T01:54:44.039Z,37.09
2018-09-26T01:59:47.322Z,37.20
2018-09-26T02:04:50.623Z,37.54
2018-09-26T02:09:53.901Z,37.53
2018-09-26T02:14:57.199Z,37.75
2018-09-26T02:20:00.475Z,37.64
2018-09-26T02:25:04.043Z,37.72
2018-09-26T02:30:07.474Z,37.40
2018-09-26T02:35:10.763Z,37.79
2018-09-26T02:40:14.089Z,37.34
2018-09-26T02:45:18.306Z,37.55
2018-09-26T02:50:21.588Z,37.50
2018-09-26T02:55:24.882Z,37.80
2018-09-26T03:00:28.165Z,37.87
2018-09-26T03:05:31.459Z,37.71
2018-09-26T03:10:34.799Z,37.88
2018-09-26T03:15:38.079Z,37.78
2018-09-26T03:20:41.389Z,37.96
2018-09-26T03:30:47.082Z,38.25
2018-09-26T03:35:50.378Z,37.79
2018-09-26T03:40:53.687Z,37.82
2018-09-26T03:45:57.207Z,38.11
2018-09-26T03:51:00.494Z,37.82
2018-09-26T03:56:03.814Z,37.86
2018-09-26T04:01:07.300Z,37.49
2018-09-26T04:06:10.590Z,37.43
2018-09-26T04:11:13.888Z,37.46
2018-09-26T04:16:17.351Z,37.60
2018-09-26T04:21:20.626Z,37.74
2018-09-26T04:26:24.045Z,37.37
2018-09-26T04:31:27.226Z,37.54
2018-09-26T04:36:30.534Z,37.47
2018-09-26T04:41:33.833Z,37.45
2018-09-26T04:46:37.284Z,37.30
2018-09-26T04:51:40.688Z,37.75
2018-09-26T04:56:44.054Z,37.65
2018-09-26T05:01:47.427Z,37.68
2018-09-26T05:06:50.715Z,37.28
2018-09-26T05:11:54.679Z,37.90
2018-09-26T05:16:58.505Z,37.63
2018-09-26T05:22:01.898Z,37.68
2018-09-26T05:27:05.266Z,37.79
2018-09-26T05:32:08.547Z,37.65
2018-09-26T05:37:11.826Z,37.28
2018-09-26T05:42:15.146Z,37.30
2018-09-26T05:47:18.426Z,37.62
2018-09-26T05:52:21.791Z,37.68
2018-09-26T05:57:25.103Z,37.72
2018-09-26T06:02:28.533Z,37.30
2018-09-26T06:07:31.815Z,37.47
2018-09-26T06:12:35.099Z,37.25
2018-09-26T06:17:38.477Z,37.25
2018-09-26T06:22:42.550Z,37.55
2018-09-26T06:27:45.832Z,37.71
2018-09-26T06:32:49.241Z,37.23
2018-09-26T06:37:52.531Z,30.25
2018-09-26T06:42:55.934Z,28.20
2018-09-26T06:47:59.205Z,28.66
2018-09-26T06:53:02.534Z,28.84
2018-09-26T06:58:05.814Z,29.66
2018-09-26T07:03:09.401Z,30.15
2018-09-26T07:08:12.762Z,29.87
2018-09-26T07:13:16.194Z,30.34
2018-09-26T07:18:19.470Z,30.83
2018-09-26T07:23:23.047Z,30.76
2018-09-26T07:28:26.327Z,31.74
2018-09-26T07:33:29.632Z,31.22
2018-09-26T07:38:32.992Z,31.43
2018-09-26T07:43:36.315Z,31.32
2018-09-26T07:48:39.686Z,31.89
2018-09-26T07:53:42.967Z,32.46
2018-09-26T07:58:46.296Z,29.29
2018-09-26T08:03:49.591Z,30.26
2018-09-26T08:08:52.969Z,30.48
2018-09-26T08:13:56.256Z,30.93
2018-09-26T08:18:59.534Z,31.41
2018-09-26T08:24:02.943Z,31.16
2018-09-26T08:29:06.297Z,31.46
2018-09-26T08:34:09.578Z,31.33
2018-09-26T08:39:13.634Z,31.75
2018-09-26T08:44:16.962Z,31.88
2018-09-26T08:49:22.570Z,31.73
2018-09-26T08:54:25.886Z,31.67
2018-09-26T08:59:29.191Z,31.46
2018-09-26T09:09:34.851Z,31.20
2018-09-26T09:14:38.281Z,31.70
2018-09-26T09:19:41.486Z,31.90
2018-09-26T09:24:44.847Z,31.98
2018-09-26T09:29:48.180Z,31.53
2018-09-26T09:34:51.491Z,32.21
2018-09-26T09:39:55.677Z,31.77
2018-09-26T09:44:59.068Z,31.19
2018-09-26T09:50:02.392Z,31.36
2018-09-26T09:55:06.362Z,30.99
2018-09-26T10:00:10.235Z,31.66
2018-09-26T10:05:13.558Z,31.45
2018-09-26T10:10:16.867Z,31.64
2018-09-26T10:15:21.441Z,31.31
2018-09-26T10:20:24.823Z,30.93
2018-09-26T10:25:28.479Z,30.94
2018-09-26T10:30:31.932Z,30.92
2018-09-26T10:35:36.251Z,31.34
2018-09-26T10:40:39.592Z,31.29
2018-09-26T10:45:42.894Z,31.15
2018-09-26T10:50:46.198Z,31.08
2018-09-26T10:55:49.509Z,30.92
2018-09-26T11:00:52.825Z,31.27
2018-09-26T11:05:56.138Z,31.28
2018-09-26T11:10:59.479Z,31.56
2018-09-26T11:16:02.791Z,31.29
2018-09-26T11:21:06.278Z,30.86
2018-09-26T11:26:09.598Z,31.17
2018-09-26T11:31:12.894Z,32.04
2018-09-26T11:36:16.206Z,31.61
2018-09-26T11:41:19.538Z,31.56
2018-09-26T11:46:22.928Z,31.77
2018-09-26T11:51:26.248Z,31.27
2018-09-26T11:56:30.188Z,30.99
2018-09-26T12:01:33.450Z,30.97
2018-09-26T12:06:36.947Z,31.33
2018-09-26T12:11:40.246Z,31.08
2018-09-26T12:16:43.554Z,31.50
2018-09-26T12:21:46.880Z,30.85
2018-09-26T12:26:50.242Z,31.27
2018-09-26T12:31:53.547Z,31.86
2018-09-26T12:36:56.927Z,31.15
2018-09-26T12:42:00.270Z,30.71
2018-09-26T12:47:03.588Z,31.17
2018-09-26T12:52:07.835Z,31.41
2018-09-26T12:57:11.120Z,31.28
2018-09-26T13:02:14.440Z,30.76
2018-09-26T13:07:17.813Z,30.87
2018-09-26T13:12:21.248Z,31.53
2018-09-26T13:17:24.515Z,31.57
2018-09-26T13:22:27.906Z,31.07
2018-09-26T13:27:31.231Z,31.55
2018-09-26T13:32:34.529Z,31.61
2018-09-26T13:37:38.103Z,31.65
2018-09-26T13:42:41.413Z,31.74
2018-09-26T13:47:44.739Z,31.71
2018-09-26T13:52:48.050Z,31.62
2018-09-26T13:57:51.356Z,31.08
2018-09-26T14:02:54.659Z,31.38
2018-09-26T14:07:57.990Z,31.25
2018-09-26T14:13:01.323Z,31.11
2018-09-26T14:18:04.634Z,31.17
2018-09-26T14:23:08.265Z,30.95
2018-09-26T14:28:11.840Z,31.12
2018-09-26T14:33:15.423Z,30.88
2018-09-26T14:38:19.044Z,31.51
2018-09-26T14:43:22.572Z,31.55
2018-09-26T14:48:26.134Z,31.41
2018-09-26T14:53:29.714Z,31.50
2018-09-26T14:58:33.353Z,31.24
2018-09-26T15:03:36.895Z,31.26
2018-09-26T15:08:40.490Z,31.34
2018-09-26T15:13:44.126Z,31.35
2018-09-26T15:18:47.739Z,31.58
2018-09-26T15:23:51.346Z,31.59
2018-09-26T15:28:54.924Z,31.67
2018-09-26T15:33:58.478Z,31.36
2018-09-26T15:39:02.110Z,31.44
2018-09-26T15:44:05.679Z,31.29
2018-09-26T15:49:09.302Z,31.14
2018-09-26T15:54:12.869Z,30.85
2018-09-26T15:59:16.486Z,31.07
2018-09-26T16:04:26.160Z,30.93
2018-09-26T16:09:29.415Z,30.98
2018-09-26T16:14:32.714Z,31.12
2018-09-26T16:19:36.019Z,31.59
2018-09-26T16:24:39.327Z,31.10
2018-09-26T16:29:42.643Z,31.73
2018-09-26T16:34:45.975Z,31.79
2018-09-26T16:39:49.346Z,31.91
2018-09-26T16:44:52.659Z,31.74
2018-09-26T16:49:55.956Z,31.89
2018-09-26T16:54:59.347Z,31.87
2018-09-26T17:00:02.677Z,31.67
2018-09-26T17:05:06.903Z,31.50
2018-09-26T17:10:10.271Z,31.78
2018-09-26T17:15:13.524Z,31.82
2018-09-26T17:20:16.879Z,32.24
2018-09-26T17:25:20.131Z,32.43
2018-09-26T17:30:23.487Z,32.71
2018-09-26T17:35:26.746Z,32.64
2018-09-26T17:40:30.151Z,32.26
2018-09-26T17:45:33.538Z,32.67
2018-09-26T17:50:36.931Z,32.29
2018-09-26T17:55:40.222Z,32.49
2018-09-26T18:00:43.503Z,32.35
2018-09-26T18:05:46.979Z,32.49
2018-09-26T18:10:50.266Z,32.04
2018-09-26T18:15:53.558Z,32.12
2018-09-26T18:20:56.842Z,32.65
2018-09-26T18:26:00.193Z,32.73
2018-09-26T18:31:03.591Z,32.34
2018-09-26T18:36:06.876Z,32.35
2018-09-26T18:41:10.182Z,32.34
2018-09-26T18:46:13.536Z,32.32
2018-09-26T18:51:17.063Z,32.86
2018-09-26T18:56:20.356Z,32.27
2018-09-26T19:01:23.638Z,32.40
2018-09-26T19:06:27.194Z,32.79
2018-09-26T19:11:30.478Z,32.59
2018-09-26T19:16:33.756Z,32.69
2018-09-26T19:21:37.144Z,32.71
2018-09-26T19:26:40.441Z,32.50
2018-09-26T19:31:43.727Z,32.15
2018-09-26T19:36:47.014Z,32.40
2018-09-26T19:41:50.672Z,32.58
2018-09-26T19:46:56.046Z,32.22
2018-09-26T19:51:59.694Z,32.52
2018-09-26T19:57:03.018Z,32.46
2018-09-26T20:02:06.335Z,32.65
2018-09-26T20:07:09.646Z,32.39
2018-09-26T20:12:12.932Z,32.93
2018-09-26T20:17:16.215Z,32.36
2018-09-26T20:22:19.494Z,32.66
2018-09-26T20:27:22.805Z,32.45
2018-09-26T20:32:26.090Z,32.49
2018-09-26T20:37:29.377Z,32.30
2018-09-26T20:42:32.655Z,32.45
2018-09-26T20:47:35.944Z,31.92
2018-09-26T20:52:39.223Z,32.04
2018-09-26T20:57:42.794Z,32.16
2018-09-26T21:02:46.207Z,32.26
2018-09-26T21:07:52.081Z,31.90
2018-09-26T21:13:00.906Z,31.74
2018-09-26T21:18:04.215Z,32.20
2018-09-26T21:23:07.534Z,31.85
2018-09-26T21:28:10.883Z,31.72
2018-09-26T21:33:14.190Z,32.18
2018-09-26T21:38:17.522Z,31.59
2018-09-26T21:43:20.802Z,31.66
2018-09-26T21:48:24.265Z,31.80
2018-09-26T21:53:27.718Z,31.67
2018-09-26T21:58:31.144Z,32.09
2018-09-26T22:03:34.638Z,32.08
2018-09-26T22:08:37.917Z,31.59
2018-09-26T22:13:41.209Z,32.10
2018-09-26T22:18:44.503Z,32.03
2018-09-26T22:23:47.821Z,32.05
2018-09-26T22:28:51.107Z,31.93
2018-09-26T22:33:54.393Z,31.86
2018-09-26T22:38:57.670Z,32.06
2018-09-26T22:44:00.955Z,32.06
2018-09-26T22:49:04.346Z,31.69
2018-09-26T22:54:07.636Z,31.68
2018-09-26T22:59:10.936Z,31.99
2018-09-26T23:04:14.211Z,31.90
2018-09-26T23:09:17.493Z,31.93
2018-09-26T23:14:20.840Z,31.51
2018-09-26T23:19:24.126Z,31.76
2018-09-26T23:24:27.618Z,31.83
2018-09-26T23:29:30.903Z,31.51
2018-09-26T23:34:34.202Z,31.61
2018-09-26T23:39:37.482Z,31.43
2018-09-26T23:44:40.775Z,31.50
2018-09-26T23:49:44.063Z,31.34
2018-09-26T23:54:47.373Z,31.23
2018-09-26T23:59:50.659Z,31.79
